Willacoochee, Georgia
Current Conditions -  °F | °C
As of 8:55 PM on Wednesday 24 Dec 2014 (Local Time) from KDQH Reporting Station
Light Rain Light Rain  
Wind Chill: 68°   Ceiling: 1600
Heat Index: 68°   Visibility: 10mi
Dew Point: 63°   Wind: 13mph
Humidity: 83%   Direction: 250°WSW
Pressure: 29.84"   Gusts: 20mph
Location:  31.34°N, 83.05°W
Report Text: KDQH 250155Z AUTO 25011G17KT 10SM -RA BKN016 BKN033 OVC100 20/17 A2984 RMK AO2
Loading
Personal Weather Stations






























Interactive Weather Map New forecast layout! Learn more

10-Day Weather Forecast

Advertisements
Track Severe Weather on mobile